Time;durP1;ratioP1;P1;durP2;ratioP2;P2;SDS_P1;SDS_P2;PMS_P1;PMS_P2;Temp;Humidity;BMP_temperature;BMP_pressure;BME280_temperature;BME280_humidity;BME280_pressure;Samples;Min_cycle;Max_cycle;Signal;HPM_P1;HPM_P2
2024/01/20 00:01:49;;;;;;;;;;;3.90;54.60;;;2.13;60.21;101730.13;12251239;19;20281;-86
2024/01/20 00:05:50;;;;;;;;;;;3.80;54.60;;;1.89;60.16;101689.84;12251188;19;19911;-86
2024/01/20 00:09:52;;;;;;;;;;;3.80;54.60;;;2.09;60.10;101725.84;12248777;19;20255;-86
2024/01/20 00:13:53;;;;;;;;;;;4.00;54.70;;;1.82;60.00;101677.88;12249517;19;19911;-86
2024/01/20 00:17:55;;;;;;;;;;;4.00;54.70;;;2.11;60.13;101731.88;12248324;19;19978;-86
2024/01/20 00:21:56;;;;;;;;;;;3.90;54.70;;;2.11;60.30;101727.56;12250570;19;19903;-85
2024/01/20 00:25:58;;;;;;;;;;;4.10;54.70;;;1.81;59.97;101683.88;12249990;19;19922;-85
2024/01/20 00:29:59;;;;;;;;;;;3.90;54.70;;;2.09;59.98;101736.16;12247773;19;19974;-85
2024/01/20 00:34:02;;;;;;;;;;;3.90;54.60;;;2.01;60.32;101713.00;12249317;19;19948;-86
2024/01/20 00:38:03;;;;;;;;;;;3.80;54.60;;;2.10;60.12;101730.13;12245683;19;20308;-86
2024/01/20 00:42:04;;;;;;;;;;;4.10;54.60;;;2.08;60.09;101731.84;12249500;19;19907;-85
2024/01/20 00:46:06;;;;;;;;;;;3.90;54.60;;;1.97;59.97;101732.78;12247874;19;19911;-85
2024/01/20 00:50:08;;;;;;;;;;;4.00;54.60;;;2.09;59.99;101760.19;12249732;19;19911;-86
2024/01/20 00:54:09;;;;;;;;;;;3.80;54.50;;;2.05;60.00;101757.63;12247755;19;19913;-85
2024/01/20 00:58:11;;;;;;;;;;;3.80;54.50;;;2.10;60.29;101779.09;12246118;19;19951;-86
2024/01/20 01:02:12;;;;;;;;;;;3.90;54.50;;;2.06;60.13;101777.41;12249447;19;19911;-85
2024/01/20 01:06:14;;;;;;;;;;;3.90;54.50;;;1.99;60.03;101766.22;12245757;19;19917;-86
2024/01/20 01:10:16;;;;;;;;;;;3.80;54.50;;;1.72;59.99;101731.13;12248421;19;20265;-85
2024/01/20 01:14:17;;;;;;;;;;;4.10;54.70;;;2.00;60.20;101783.44;12247455;19;20293;-85
2024/01/20 01:18:19;;;;;;;;;;;3.80;54.50;;;1.99;59.96;101785.13;12245672;19;20260;-86
2024/01/20 01:22:20;;;;;;;;;;;3.80;54.50;;;1.95;60.15;101785.16;12247251;19;19951;-85
2024/01/20 01:26:23;;;;;;;;;;;3.80;54.50;;;1.82;60.28;101768.88;12243982;19;19925;-86
2024/01/20 01:30:25;;;;;;;;;;;3.80;54.40;;;2.04;60.00;101804.88;12246124;19;20283;-86
2024/01/20 01:34:26;;;;;;;;;;;4.00;54.60;;;2.04;60.01;101810.03;12242747;19;19943;-86
2024/01/20 01:38:28;;;;;;;;;;;4.00;54.60;;;2.04;59.99;101816.03;12242852;19;19907;-86
2024/01/20 01:42:29;;;;;;;;;;;4.10;54.60;;;1.75;60.26;101762.84;12243362;19;19923;-85
2024/01/20 01:46:31;;;;;;;;;;;3.80;54.40;;;1.87;60.08;101789.47;12242737;19;19915;-86
2024/01/20 01:50:32;;;;;;;;;;;3.80;54.50;;;1.95;60.00;101804.03;12243382;19;19919;-86
2024/01/20 01:54:34;;;;;;;;;;;3.80;54.50;;;1.83;60.22;101790.31;12243882;19;19927;-86
2024/01/20 01:58:35;;;;;;;;;;;3.80;54.40;;;2.01;60.14;101820.34;12239442;19;19911;-86
2024/01/20 02:02:37;;;;;;;;;;;3.80;54.50;;;1.93;59.99;101810.03;12243442;19;19923;-86
2024/01/20 02:06:42;;;;;;;;;;;4.00;54.50;;;1.92;60.13;101806.63;12246687;19;19915;-86
2024/01/20 02:10:46;;;;;;;;;;;3.90;54.60;;;1.97;60.02;101822.03;12254948;19;19940;-86
2024/01/20 02:14:48;;;;;;;;;;;3.80;54.50;;;1.89;60.16;101811.78;12256216;19;20381;-86
2024/01/20 02:18:49;;;;;;;;;;;3.80;54.40;;;1.88;60.27;101804.03;12251110;19;20384;-85
2024/01/20 02:22:51;;;;;;;;;;;3.90;54.50;;;2.00;60.14;101832.38;12256388;19;19914;-86
2024/01/20 02:26:52;;;;;;;;;;;3.70;54.80;;;1.96;60.15;101822.91;12254186;19;19931;-85
2024/01/20 02:30:54;;;;;;;;;;;3.70;54.40;;;1.93;60.02;101812.63;12254684;19;19907;-85
2024/01/20 02:34:55;;;;;;;;;;;3.80;54.40;;;1.97;60.24;101820.34;12254845;19;19933;-85
2024/01/20 02:38:57;;;;;;;;;;;3.80;54.50;;;1.90;60.15;101812.63;12250905;19;19911;-86
2024/01/20 02:42:58;;;;;;;;;;;3.90;54.50;;;1.70;60.08;101784.31;12255981;19;19915;-86
2024/01/20 02:47:00;;;;;;;;;;;3.80;54.50;;;1.96;60.26;101831.50;12252741;19;19911;-86
2024/01/20 02:51:01;;;;;;;;;;;3.70;54.50;;;1.92;60.11;101818.66;12249772;19;19978;-86
2024/01/20 02:55:03;;;;;;;;;;;3.70;54.50;;;2.01;60.26;101843.53;12253855;19;19907;-85
2024/01/20 02:59:04;;;;;;;;;;;3.70;54.50;;;1.73;59.96;101795.50;12250293;19;19926;-85
2024/01/20 03:03:06;;;;;;;;;;;3.80;54.50;;;2.01;60.04;101834.06;12254306;19;19922;-86
2024/01/20 03:07:07;;;;;;;;;;;4.00;54.60;;;2.05;59.95;101850.38;12252312;19;19919;-85
2024/01/20 03:11:08;;;;;;;;;;;3.80;54.50;;;1.87;59.98;101820.38;12253595;19;19922;-85
2024/01/20 03:15:10;;;;;;;;;;;3.70;54.40;;;1.99;60.11;101840.94;12252540;19;19918;-86
2024/01/20 03:19:11;;;;;;;;;;;3.80;54.50;;;1.98;60.19;101831.50;12248926;19;19911;-85
2024/01/20 03:23:13;;;;;;;;;;;3.80;54.50;;;2.01;60.20;101834.06;12252631;19;19933;-86
2024/01/20 03:27:17;;;;;;;;;;;3.80;54.50;;;1.82;60.21;101796.34;12251526;19;19919;-86
2024/01/20 03:31:19;;;;;;;;;;;3.80;54.50;;;1.97;60.07;101825.50;12253531;19;19979;-86
2024/01/20 03:35:22;;;;;;;;;;;3.80;54.50;;;2.03;60.01;101842.66;12252204;19;20436;-86
2024/01/20 03:39:23;;;;;;;;;;;3.90;54.60;;;2.01;60.02;101839.22;12248164;19;19939;-85
2024/01/20 03:43:25;;;;;;;;;;;3.80;54.50;;;2.08;59.94;101851.25;12252373;19;19918;-86
2024/01/20 03:47:26;;;;;;;;;;;3.90;54.50;;;1.96;60.16;101854.66;12250376;19;19986;-86
2024/01/20 03:51:27;;;;;;;;;;;4.10;54.60;;;1.74;60.08;101815.22;12251606;19;19929;-86
2024/01/20 03:55:29;;;;;;;;;;;4.10;54.70;;;2.07;59.95;101877.84;12250777;19;20296;-86
2024/01/20 03:59:30;;;;;;;;;;;4.10;54.60;;;2.07;60.15;101883.00;12249954;19;19915;-85
2024/01/20 04:03:31;;;;;;;;;;;3.90;54.50;;;2.09;60.04;101886.44;12251449;19;19919;-85
2024/01/20 04:07:33;;;;;;;;;;;3.90;54.50;;;2.01;60.08;101872.72;12250152;19;19910;-85
2024/01/20 04:11:34;;;;;;;;;;;3.90;54.50;;;1.99;60.20;101877.84;12250669;19;19911;-86
2024/01/20 04:15:36;;;;;;;;;;;3.90;54.50;;;2.05;60.09;101884.72;12250304;19;19941;-86
2024/01/20 04:19:37;;;;;;;;;;;3.90;54.50;;;2.01;60.32;101889.88;12245376;19;19931;-86
2024/01/20 04:23:38;;;;;;;;;;;3.90;54.60;;;1.95;60.15;101877.88;12246884;19;19927;-86
2024/01/20 04:27:42;;;;;;;;;;;4.00;54.50;;;2.06;60.11;101901.91;12245143;19;19922;-86
2024/01/20 04:31:44;;;;;;;;;;;4.10;54.70;;;2.04;60.31;101884.72;12247177;19;19922;-85
2024/01/20 04:35:45;;;;;;;;;;;3.90;54.50;;;2.09;60.15;101891.59;12247446;19;19930;-86
2024/01/20 04:39:47;;;;;;;;;;;4.20;54.70;;;2.06;60.37;101876.13;12244040;19;19958;-85
2024/01/20 04:43:48;;;;;;;;;;;4.20;54.70;;;2.06;60.20;101881.28;12246739;19;19932;-86
2024/01/20 04:47:49;;;;;;;;;;;3.90;54.50;;;1.97;59.92;101865.81;12246089;19;19919;-86
2024/01/20 04:51:51;;;;;;;;;;;4.00;54.60;;;2.15;59.91;101894.16;12248439;19;19926;-86
2024/01/20 04:55:53;;;;;;;;;;;4.00;54.60;;;2.22;60.23;101913.91;12246965;19;20092;-86
2024/01/20 04:59:54;;;;;;;;;;;3.90;54.50;;;2.09;59.94;101890.75;12244731;19;19946;-86
2024/01/20 05:03:55;;;;;;;;;;;4.20;54.60;;;2.15;60.07;101909.59;12246935;19;19914;-86
2024/01/20 05:07:57;;;;;;;;;;;4.00;54.60;;;2.18;60.13;101914.75;12243215;19;19951;-85
2024/01/20 05:11:58;;;;;;;;;;;3.90;54.50;;;2.23;60.31;101925.06;12246001;19;19919;-86
2024/01/20 05:16:00;;;;;;;;;;;4.00;54.50;;;1.95;60.10;101873.56;12246460;19;19915;-86
2024/01/20 05:20:02;;;;;;;;;;;4.00;54.50;;;2.14;60.03;101905.31;12242193;19;20281;-86
2024/01/20 05:24:04;;;;;;;;;;;4.00;54.50;;;1.97;59.99;101881.28;12245234;19;19907;-86
2024/01/20 05:28:06;;;;;;;;;;;4.00;54.50;;;1.96;59.97;101884.72;12243359;19;19911;-86
2024/01/20 05:32:07;;;;;;;;;;;3.90;54.50;;;2.22;60.10;101938.81;12245694;19;19911;-86
2024/01/20 05:36:10;;;;;;;;;;;4.20;54.60;;;2.15;60.00;101943.09;12243178;19;19914;-85
2024/01/20 05:40:12;;;;;;;;;;;3.90;54.50;;;2.14;59.87;101954.28;12246571;19;19931;-86
2024/01/20 05:44:13;;;;;;;;;;;3.90;54.50;;;2.19;60.15;101959.44;12258570;19;19925;-86
2024/01/20 05:48:15;;;;;;;;;;;4.00;54.60;;;2.06;60.05;101939.69;12254859;19;19907;-86
2024/01/20 05:52:16;;;;;;;;;;;3.90;54.50;;;2.07;59.97;101952.56;12255179;19;19929;-86
2024/01/20 05:56:20;;;;;;;;;;;4.10;54.60;;;2.18;60.14;101971.44;12257562;19;19923;-85
2024/01/20 06:00:22;;;;;;;;;;;4.00;54.60;;;1.95;60.01;101922.50;12253120;19;20012;-86
2024/01/20 06:04:23;;;;;;;;;;;3.90;54.60;;;2.16;59.99;101957.72;12257404;19;19935;-85
2024/01/20 06:08:25;;;;;;;;;;;4.10;54.70;;;2.09;60.15;101962.88;12253119;19;20278;-86
2024/01/20 06:12:26;;;;;;;;;;;4.10;54.70;;;2.19;60.16;101964.59;12255649;19;19915;-85
2024/01/20 06:16:28;;;;;;;;;;;4.20;54.80;;;2.20;60.28;101956.84;12255452;19;19915;-86
2024/01/20 06:20:30;;;;;;;;;;;4.00;54.80;;;2.25;60.32;101948.28;12251935;19;20262;-86
2024/01/20 06:24:31;;;;;;;;;;;4.00;54.80;;;2.07;59.99;101919.06;12256764;19;19943;-86
2024/01/20 06:28:32;;;;;;;;;;;4.10;54.80;;;2.30;60.22;101952.56;12253512;19;19967;-86
2024/01/20 06:32:34;;;;;;;;;;;4.10;54.80;;;2.35;60.04;101965.41;12249933;19;19926;-86
2024/01/20 06:36:35;;;;;;;;;;;4.10;54.80;;;2.09;60.10;101917.34;12253266;19;19919;-86
2024/01/20 06:40:36;;;;;;;;;;;4.50;55.00;;;2.39;60.09;101965.41;12250162;19;20350;-87
2024/01/20 06:44:38;;;;;;;;;;;4.20;54.80;;;2.18;60.13;101929.34;12252892;19;19918;-90
2024/01/20 06:48:39;;;;;;;;;;;4.30;54.80;;;1.96;60.15;101893.31;12251758;19;19970;-89
2024/01/20 06:52:41;;;;;;;;;;;4.40;54.90;;;2.43;60.12;101974.00;12255715;19;19914;-86
2024/01/20 06:56:42;;;;;;;;;;;4.20;54.80;;;2.42;59.95;101977.44;12254482;19;19955;-86
2024/01/20 07:00:44;;;;;;;;;;;4.40;54.90;;;2.51;60.00;101995.50;12255185;19;19915;-87
2024/01/20 07:04:45;;;;;;;;;;;4.20;54.90;;;2.40;60.22;101974.88;12252428;19;19926;-86
2024/01/20 07:08:47;;;;;;;;;;;4.20;54.90;;;2.30;60.08;101951.69;12249497;19;19922;-87
2024/01/20 07:12:48;;;;;;;;;;;4.30;54.90;;;2.40;60.17;101974.88;12256356;19;19922;-86
2024/01/20 07:16:50;;;;;;;;;;;4.40;55.00;;;2.60;60.19;102003.22;12251786;19;19914;-86
2024/01/20 07:20:52;;;;;;;;;;;4.60;55.10;;;2.59;60.17;102004.09;12254890;19;19923;-87
2024/01/20 07:24:54;;;;;;;;;;;4.30;55.00;;;2.58;60.31;101992.03;12254642;19;19919;-85
2024/01/20 07:28:55;;;;;;;;;;;4.70;55.20;;;2.66;59.92;102000.59;12249223;19;20338;-85
2024/01/20 07:32:58;;;;;;;;;;;4.40;55.00;;;2.74;60.10;102010.91;12254563;19;20252;-87
2024/01/20 07:37:00;;;;;;;;;;;4.50;55.10;;;2.74;60.16;102010.91;12249888;19;20253;-87
2024/01/20 07:41:02;;;;;;;;;;;4.50;55.10;;;2.77;60.23;102004.91;12251978;19;19944;-86
2024/01/20 07:45:04;;;;;;;;;;;4.50;55.10;;;2.63;60.21;102000.63;12251677;19;19931;-86
2024/01/20 07:49:05;;;;;;;;;;;4.50;55.10;;;2.81;60.31;102022.94;12247558;19;19961;-86
2024/01/20 07:53:07;;;;;;;;;;;4.70;55.20;;;2.71;60.17;101994.59;12251616;19;20251;-85
2024/01/20 07:57:08;;;;;;;;;;;4.60;55.20;;;2.88;60.02;102016.03;12250098;19;19914;-86
2024/01/20 08:01:10;;;;;;;;;;;4.80;55.30;;;2.92;60.21;102020.34;12250052;19;20354;-86
2024/01/20 08:05:11;;;;;;;;;;;4.70;55.20;;;3.03;60.17;102036.66;12247793;19;19923;-86
2024/01/20 08:09:13;;;;;;;;;;;4.80;55.20;;;2.83;60.18;102012.59;12252059;19;19952;-86
2024/01/20 08:13:16;;;;;;;;;;;4.80;55.20;;;3.10;60.01;102045.22;12248824;19;19929;-89
2024/01/20 08:17:18;;;;;;;;;;;5.00;55.20;;;3.17;60.14;102057.25;12246598;19;19921;-85
2024/01/20 08:21:20;;;;;;;;;;;4.90;55.20;;;3.09;60.13;102044.38;12251427;19;19927;-86
2024/01/20 08:25:22;;;;;;;;;;;4.90;55.50;;;3.21;60.40;102063.25;12251273;19;19970;-86
2024/01/20 08:29:23;;;;;;;;;;;5.00;55.10;;;3.23;60.22;102071.84;12250419;19;20325;-85
2024/01/20 08:33:25;;;;;;;;;;;5.10;55.20;;;3.26;60.24;102069.25;12253209;19;19918;-84
2024/01/20 08:37:26;;;;;;;;;;;5.00;55.10;;;3.18;60.26;102051.22;12246639;19;20266;-86
2024/01/20 08:41:28;;;;;;;;;;;5.10;55.20;;;3.30;60.00;102073.56;12250533;19;20267;-87
2024/01/20 08:45:29;;;;;;;;;;;5.00;55.10;;;3.05;60.27;102034.94;12249572;19;19915;-85
2024/01/20 08:49:31;;;;;;;;;;;5.00;55.10;;;3.26;60.22;102062.38;12245260;19;19929;-86
2024/01/20 08:53:33;;;;;;;;;;;5.40;55.30;;;3.17;60.23;102046.06;12247389;19;19914;-86
2024/01/20 08:57:35;;;;;;;;;;;5.40;55.30;;;3.16;60.20;102044.34;12246187;19;19943;-86
2024/01/20 09:01:37;;;;;;;;;;;5.40;55.30;;;3.38;60.36;102076.97;12246653;19;19930;-87
2024/01/20 09:05:38;;;;;;;;;;;5.20;55.20;;;3.42;60.12;102078.66;12245598;19;19925;-86
2024/01/20 09:09:41;;;;;;;;;;;5.20;55.20;;;3.40;60.06;102074.38;12249729;19;19919;-87
2024/01/20 09:13:42;;;;;;;;;;;5.30;55.10;;;3.48;60.25;102091.59;12247467;19;19914;-86
2024/01/20 09:17:43;;;;;;;;;;;5.30;55.10;;;3.41;60.13;102081.28;12244492;19;19927;-86
2024/01/20 09:21:45;;;;;;;;;;;5.30;55.10;;;3.59;60.26;102113.91;12245674;19;19934;-86
2024/01/20 09:25:47;;;;;;;;;;;5.30;55.10;;;3.66;60.25;102118.19;12245267;19;19911;-86
2024/01/20 09:29:49;;;;;;;;;;;5.40;55.20;;;3.53;60.24;102102.72;12246440;19;19931;-86
2024/01/20 09:33:51;;;;;;;;;;;5.40;55.10;;;3.70;60.30;102133.69;12247050;19;20022;-86
2024/01/20 09:37:52;;;;;;;;;;;5.40;55.10;;;3.61;60.13;102122.50;12244985;19;19955;-86
2024/01/20 09:41:54;;;;;;;;;;;5.40;55.10;;;3.43;60.19;102085.56;12249209;19;19930;-86
2024/01/20 09:45:56;;;;;;;;;;;5.50;55.10;;;3.68;60.12;102127.66;12244589;19;20276;-85
2024/01/20 09:49:58;;;;;;;;;;;5.60;55.10;;;3.62;60.11;102108.72;12247069;19;19926;-86
2024/01/20 09:53:59;;;;;;;;;;;5.60;55.10;;;3.64;60.20;102120.75;12244741;19;19923;-85
2024/01/20 09:58:02;;;;;;;;;;;5.50;55.50;;;3.58;60.52;102109.59;12244861;19;19919;-85
2024/01/20 10:02:04;;;;;;;;;;;5.50;55.10;;;3.79;60.23;102144.84;12245494;19;19918;-86
2024/01/20 10:06:05;;;;;;;;;;;5.60;55.20;;;3.77;60.28;102139.66;12245624;19;19932;-86
2024/01/20 10:10:09;;;;;;;;;;;5.60;55.10;;;3.86;60.37;102146.50;12247046;19;19928;-86
2024/01/20 10:14:11;;;;;;;;;;;5.60;55.10;;;3.90;60.25;102158.56;12244704;19;19955;-86
2024/01/20 10:18:12;;;;;;;;;;;5.60;55.10;;;3.91;60.36;102142.19;12242256;19;19931;-87
2024/01/20 10:22:14;;;;;;;;;;;5.70;55.20;;;3.93;60.36;102133.56;12244728;19;19953;-87
2024/01/20 10:26:17;;;;;;;;;;;5.70;55.30;;;4.07;60.20;102150.72;12245252;19;19907;-87
2024/01/20 10:30:22;;;;;;;;;;;5.80;55.20;;;4.10;60.40;102155.88;12257385;19;20005;-86
2024/01/20 10:34:24;;;;;;;;;;;5.80;55.30;;;4.18;60.32;102154.09;12255784;19;19922;-87
2024/01/20 10:38:28;;;;;;;;;;;5.90;55.30;;;4.09;60.22;102124.00;12251163;19;19948;-87
2024/01/20 10:42:30;;;;;;;;;;;6.00;55.30;;;4.27;60.29;102143.72;12254530;19;19907;-86
2024/01/20 10:46:36;;;;;;;;;;;6.00;55.30;;;4.41;60.41;102157.41;12253671;19;19923;-86
2024/01/20 10:50:40;;;;;;;;;;;6.10;55.30;;;4.37;60.27;102147.09;12255183;19;19915;-87
2024/01/20 10:54:43;;;;;;;;;;;6.20;55.30;;;4.40;60.08;102150.53;12254043;19;20258;-85
2024/01/20 10:58:50;;;;;;;;;;;6.20;55.20;;;4.51;60.31;102152.16;12251445;19;19953;-86
2024/01/20 11:02:52;;;;;;;;;;;6.30;55.10;;;4.54;60.33;102157.34;12253983;19;19933;-86
2024/01/20 11:06:55;;;;;;;;;;;6.40;55.10;;;4.55;60.22;102154.72;12252366;19;19931;-86
2024/01/20 11:10:57;;;;;;;;;;;6.40;55.10;;;4.66;60.18;102177.94;12255093;19;19914;-86
2024/01/20 11:14:58;;;;;;;;;;;6.40;55.10;;;4.71;60.35;102185.69;12256797;19;19940;-86
2024/01/20 11:19:10;;;;;;;;;;;6.50;54.60;;;4.59;60.17;102168.50;12250694;19;19915;-86
2024/01/20 11:23:12;;;;;;;;;;;6.40;55.00;;;4.73;60.39;102174.44;12256809;19;19934;-85
2024/01/20 11:27:13;;;;;;;;;;;6.50;54.80;;;4.82;60.20;102181.28;12253213;19;19919;-85
2024/01/20 11:31:21;;;;;;;;;;;6.50;55.00;;;4.69;60.22;102157.22;12254712;19;20006;-84
2024/01/20 11:35:24;;;;;;;;;;;6.60;55.10;;;4.77;60.28;102154.56;12253006;19;19927;-85
2024/01/20 11:39:25;;;;;;;;;;;6.60;55.00;;;4.91;60.20;102175.16;12255292;19;20265;-85
2024/01/20 11:43:27;;;;;;;;;;;6.80;55.10;;;4.82;60.23;102147.63;12254909;19;19929;-85
2024/01/20 11:47:29;;;;;;;;;;;6.90;55.10;;;4.94;60.21;102159.59;12252158;19;19929;-86
2024/01/20 11:51:31;;;;;;;;;;;6.70;55.00;;;4.91;60.40;102139.78;12251806;19;19929;-84
2024/01/20 11:55:33;;;;;;;;;;;6.70;55.00;;;4.92;60.15;102140.66;12250232;19;19931;-86
2024/01/20 11:59:34;;;;;;;;;;;6.70;55.00;;;5.01;60.30;102151.78;12249312;19;19923;-87
2024/01/20 12:03:36;;;;;;;;;;;6.80;55.00;;;5.08;60.28;102162.94;12245353;19;19929;-85
2024/01/20 12:07:37;;;;;;;;;;;6.80;55.00;;;5.10;60.21;102156.00;12248204;19;19922;-85
2024/01/20 12:11:39;;;;;;;;;;;6.80;55.00;;;5.14;60.28;102155.13;12247774;19;19971;-84
2024/01/20 12:15:42;;;;;;;;;;;6.90;55.10;;;5.19;60.04;102153.34;12252254;19;19938;-84
2024/01/20 12:19:43;;;;;;;;;;;6.90;54.90;;;5.03;60.27;102131.06;12245720;19;19915;-85
2024/01/20 12:23:45;;;;;;;;;;;6.90;54.90;;;5.19;60.22;102150.75;12250438;19;19923;-84
2024/01/20 12:27:49;;;;;;;;;;;6.90;54.90;;;5.27;60.20;102172.25;12247199;19;20349;-85
2024/01/20 12:31:51;;;;;;;;;;;6.90;54.80;;;5.21;60.12;102169.72;12251905;19;19911;-84
2024/01/20 12:35:52;;;;;;;;;;;7.10;55.00;;;5.28;59.98;102179.13;12248202;19;19916;-84
2024/01/20 12:39:54;;;;;;;;;;;7.00;55.00;;;4.96;59.92;102119.88;12245611;19;19929;-85
2024/01/20 12:43:56;;;;;;;;;;;7.00;54.90;;;5.28;60.22;102160.16;12250033;19;19914;-85
2024/01/20 12:47:57;;;;;;;;;;;7.00;54.90;;;5.39;60.00;102178.19;12246898;19;19929;-85
2024/01/20 12:51:59;;;;;;;;;;;7.10;54.90;;;5.28;60.28;102163.59;12242682;19;19911;-85
2024/01/20 12:56:00;;;;;;;;;;;7.10;55.00;;;5.13;60.07;102124.94;12249644;19;19915;-87
2024/01/20 13:00:03;;;;;;;;;;;7.10;55.00;;;5.40;60.25;102166.94;12248212;19;19929;-85
2024/01/20 13:04:05;;;;;;;;;;;7.10;55.00;;;5.41;60.17;102171.25;12249613;19;19937;-85
2024/01/20 13:08:06;;;;;;;;;;;7.10;55.00;;;5.40;59.98;102157.44;12246415;19;19926;-86
2024/01/20 13:12:08;;;;;;;;;;;7.10;55.00;;;5.24;59.96;102127.41;12249131;19;20323;-85
2024/01/20 13:16:09;;;;;;;;;;;7.10;54.80;;;5.35;59.92;102142.81;12247478;19;19949;-85
2024/01/20 13:20:11;;;;;;;;;;;7.10;54.80;;;5.41;60.08;102153.13;12248976;19;20329;-85
2024/01/20 13:24:13;;;;;;;;;;;7.10;54.70;;;5.43;60.09;102170.38;12250064;19;19922;-83
2024/01/20 13:28:16;;;;;;;;;;;7.10;54.70;;;5.38;59.93;102172.16;12243974;19;19940;-83
2024/01/20 13:32:18;;;;;;;;;;;7.10;54.60;;;5.28;59.94;102158.41;12250007;19;19915;-84
2024/01/20 13:36:19;;;;;;;;;;;7.20;54.70;;;5.28;59.96;102163.59;12245353;19;19958;-84
2024/01/20 13:40:20;;;;;;;;;;;7.10;54.70;;;5.12;59.87;102141.31;12246909;19;19956;-84
2024/01/20 13:44:22;;;;;;;;;;;7.30;54.80;;;5.22;59.93;102157.63;12247325;19;19915;-85
2024/01/20 13:48:24;;;;;;;;;;;7.20;54.80;;;5.42;60.05;102197.13;12247038;19;19932;-84
2024/01/20 13:52:25;;;;;;;;;;;7.00;54.70;;;5.44;59.93;102210.06;12247589;19;20275;-85
2024/01/20 13:56:27;;;;;;;;;;;7.10;54.80;;;5.40;60.11;102208.38;12248501;19;20249;-84
2024/01/20 14:00:28;;;;;;;;;;;7.10;54.80;;;5.19;59.82;102171.47;12243903;19;20794;-85
2024/01/20 14:04:30;;;;;;;;;;;7.10;54.80;;;5.37;59.86;102200.63;12255934;19;19915;-84
2024/01/20 14:08:31;;;;;;;;;;;7.10;54.80;;;5.27;59.79;102192.97;12243126;19;19930;-84
2024/01/20 14:12:32;;;;;;;;;;;7.10;54.80;;;5.36;59.86;102207.56;12259418;19;19933;-84
2024/01/20 14:16:34;;;;;;;;;;;7.10;54.80;;;5.48;59.71;102228.19;12254572;19;20311;-84
2024/01/20 14:20:35;;;;;;;;;;;7.10;54.80;;;5.46;59.79;102235.09;12253670;19;19923;-84
2024/01/20 14:24:37;;;;;;;;;;;7.10;54.80;;;5.22;59.63;102193.88;12257003;19;19915;-84
2024/01/20 14:28:38;;;;;;;;;;;7.10;54.70;;;5.48;59.97;102235.94;12250974;19;20258;-84
2024/01/20 14:32:40;;;;;;;;;;;7.10;54.70;;;5.48;59.80;102241.13;12259435;19;19915;-84
2024/01/20 14:36:42;;;;;;;;;;;7.20;54.80;;;5.38;59.77;102217.91;12255046;19;20366;-84
2024/01/20 14:40:43;;;;;;;;;;;7.10;54.70;;;5.38;60.02;102221.38;12255211;19;19923;-84
2024/01/20 14:44:45;;;;;;;;;;;7.10;54.70;;;5.35;59.77;102225.69;12254491;19;19928;-84
2024/01/20 14:48:46;;;;;;;;;;;7.10;54.60;;;5.42;59.74;102248.09;12251498;19;20269;-84
2024/01/20 14:52:48;;;;;;;;;;;7.10;54.60;;;5.33;59.93;102244.69;12255412;19;20246;-84
2024/01/20 14:56:49;;;;;;;;;;;7.10;54.60;;;5.32;59.70;102242.16;12253696;19;19926;-84
2024/01/20 15:00:52;;;;;;;;;;;7.00;54.60;;;5.41;59.72;102264.50;12254001;19;19911;-85
2024/01/20 15:04:54;;;;;;;;;;;7.00;54.60;;;5.17;59.63;102231.91;12257552;19;20400;-84
2024/01/20 15:08:55;;;;;;;;;;;7.00;54.60;;;5.26;59.81;102262.91;12253391;19;19929;-85
2024/01/20 15:12:57;;;;;;;;;;;7.00;54.90;;;5.28;59.63;102271.53;12255326;19;20537;-85
2024/01/20 15:16:58;;;;;;;;;;;7.00;54.50;;;5.26;59.84;102274.09;12255453;19;19935;-84
2024/01/20 15:21:00;;;;;;;;;;;7.00;54.60;;;5.30;59.79;102312.06;12251825;19;19919;-85
2024/01/20 15:25:02;;;;;;;;;;;6.90;54.50;;;5.21;59.71;102304.38;12256261;19;20467;-84
2024/01/20 15:29:03;;;;;;;;;;;6.90;54.50;;;4.93;59.64;102266.59;12253496;19;19907;-85
2024/01/20 15:33:08;;;;;;;;;;;6.90;54.50;;;5.04;59.73;102301.91;12256554;19;19933;-85
2024/01/20 15:37:09;;;;;;;;;;;6.80;54.40;;;4.99;59.73;102311.41;12255723;19;19911;-85
2024/01/20 15:41:11;;;;;;;;;;;6.80;54.50;;;4.96;59.51;102315.75;12254779;19;19930;-85
2024/01/20 15:45:12;;;;;;;;;;;6.60;54.40;;;4.93;59.64;102324.41;12257106;19;19918;-84
2024/01/20 15:49:15;;;;;;;;;;;6.70;54.50;;;4.83;59.66;102326.22;12254102;19;19974;-85
2024/01/20 15:53:16;;;;;;;;;;;6.60;54.50;;;4.83;59.66;102349.50;12258551;19;19911;-86
2024/01/20 15:57:17;;;;;;;;;;;6.50;54.20;;;4.69;59.74;102334.91;12255033;19;20319;-84
2024/01/20 16:01:19;;;;;;;;;;;6.50;54.20;;;4.57;59.56;102325.47;12256864;19;19926;-84
2024/01/20 16:05:20;;;;;;;;;;;6.40;54.20;;;4.69;59.61;102353.84;12256342;19;19918;-83
2024/01/20 16:09:22;;;;;;;;;;;6.50;54.30;;;4.64;59.75;102359.09;12255902;19;19930;-85
2024/01/20 16:13:23;;;;;;;;;;;6.30;54.70;;;4.57;59.62;102356.50;12254598;19;19923;-84
2024/01/20 16:17:24;;;;;;;;;;;6.30;54.40;;;4.58;59.59;102360.81;12254398;19;19911;-84
2024/01/20 16:21:26;;;;;;;;;;;6.50;54.50;;;4.56;59.50;102367.72;12254113;19;19914;-84
2024/01/20 16:25:31;;;;;;;;;;;6.20;54.40;;;4.55;59.45;102368.59;12247606;19;20220;-85
2024/01/20 16:29:32;;;;;;;;;;;6.20;54.50;;;4.55;59.46;102372.03;12255581;19;19943;-86
2024/01/20 16:33:34;;;;;;;;;;;6.30;54.50;;;4.55;59.51;102386.69;12253976;19;19927;-84
2024/01/20 16:37:36;;;;;;;;;;;6.20;54.50;;;4.55;59.60;102403.06;12252560;19;20292;-84
2024/01/20 16:41:37;;;;;;;;;;;6.20;54.50;;;4.41;59.64;102382.44;12255825;19;19915;-85
2024/01/20 16:45:39;;;;;;;;;;;6.10;54.40;;;4.50;59.58;102401.38;12247790;19;19923;-85
2024/01/20 16:49:40;;;;;;;;;;;6.10;54.40;;;4.46;59.48;102407.44;12247548;19;19939;-84
2024/01/20 16:53:42;;;;;;;;;;;6.10;54.50;;;4.36;59.37;102404.00;12247960;19;19956;-85
2024/01/20 16:57:43;;;;;;;;;;;6.00;54.40;;;4.27;59.42;102407.47;12247186;19;19931;-85
2024/01/20 17:01:45;;;;;;;;;;;6.00;54.40;;;4.23;59.53;102410.91;12250425;19;19911;-85
2024/01/20 17:05:49;;;;;;;;;;;5.90;54.30;;;4.22;59.44;102429.88;12249788;19;19940;-85
2024/01/20 17:09:50;;;;;;;;;;;5.90;54.20;;;4.09;59.59;102423.84;12247070;19;20357;-85
2024/01/20 17:13:52;;;;;;;;;;;5.80;54.20;;;3.94;59.43;102411.81;12247644;19;19919;-85
2024/01/20 17:17:53;;;;;;;;;;;5.80;54.20;;;3.90;59.65;102420.41;12247601;19;19919;-85
2024/01/20 17:21:55;;;;;;;;;;;5.70;54.20;;;3.97;59.59;102442.81;12250386;19;19923;-85
2024/01/20 17:25:57;;;;;;;;;;;5.70;54.60;;;3.65;59.45;102408.38;12249178;19;19930;-85
2024/01/20 17:29:58;;;;;;;;;;;5.60;54.20;;;3.83;59.66;102457.44;12243949;19;19923;-85
2024/01/20 17:34:00;;;;;;;;;;;5.60;54.10;;;3.53;59.37;102422.13;12246536;19;19926;-85
2024/01/20 17:38:01;;;;;;;;;;;5.50;54.10;;;3.79;59.54;102472.97;12250418;19;19972;-85
2024/01/20 17:42:04;;;;;;;;;;;5.50;54.10;;;3.67;59.54;102461.75;12259717;19;19919;-85
2024/01/20 17:46:06;;;;;;;;;;;5.40;54.10;;;3.66;59.39;102470.34;12264509;19;19911;-85
2024/01/20 17:50:07;;;;;;;;;;;5.30;54.00;;;3.62;59.50;102472.91;12267031;19;19944;-85
2024/01/20 17:54:12;;;;;;;;;;;5.30;54.10;;;3.61;59.62;102478.94;12266856;19;20381;-85
2024/01/20 17:58:13;;;;;;;;;;;5.30;54.20;;;3.51;59.58;102475.47;12261456;19;19918;-86
2024/01/20 18:02:15;;;;;;;;;;;5.20;54.10;;;3.55;59.50;102487.56;12266191;19;19918;-85
2024/01/20 18:06:17;;;;;;;;;;;5.20;54.00;;;3.49;59.50;102483.25;12267415;19;19974;-85
2024/01/20 18:10:18;;;;;;;;;;;5.20;54.10;;;3.42;59.65;102466.00;12258845;19;20305;-86
2024/01/20 18:14:20;;;;;;;;;;;5.10;54.20;;;3.39;59.60;102459.97;12264793;19;19926;-85
2024/01/20 18:18:21;;;;;;;;;;;5.10;54.30;;;3.36;59.66;102463.41;12262715;19;19922;-85
2024/01/20 18:22:23;;;;;;;;;;;5.10;54.20;;;3.35;59.52;102471.13;12264047;19;19915;-86
2024/01/20 18:26:24;;;;;;;;;;;5.00;54.20;;;3.23;59.72;102465.06;12264573;19;19918;-85
2024/01/20 18:30:26;;;;;;;;;;;5.10;54.30;;;3.13;59.53;102454.72;12265104;19;19974;-86